createdAt,value
2018-11-27T00:00:38.179Z,1.4
2018-11-27T00:05:38.192Z,1.4
2018-11-27T00:10:38.373Z,1.4
2018-11-27T00:15:38.200Z,1.4
2018-11-27T00:20:38.198Z,1.4
2018-11-27T00:25:38.192Z,1.4
2018-11-27T00:30:38.194Z,1.4
2018-11-27T00:35:38.154Z,1.4
2018-11-27T00:40:38.196Z,1.4
2018-11-27T00:45:38.409Z,1.4
2018-11-27T00:50:38.209Z,1.4
2018-11-27T00:55:38.205Z,1.4
2018-11-27T01:00:38.195Z,1.4
2018-11-27T01:05:38.327Z,1.4
2018-11-27T01:10:38.219Z,1.4
2018-11-27T01:15:38.229Z,1.4
2018-11-27T01:20:38.219Z,1.4
2018-11-27T01:25:38.203Z,1.4
2018-11-27T01:30:38.241Z,1.4
2018-11-27T01:35:38.236Z,1.4
2018-11-27T01:40:38.366Z,1.4
2018-11-27T01:45:38.241Z,1.4
2018-11-27T01:50:38.189Z,1.4
2018-11-27T01:55:38.323Z,1.4
2018-11-27T02:00:38.236Z,1.4
2018-11-27T02:05:38.239Z,1.4
2018-11-27T02:10:38.237Z,1.4
2018-11-27T02:15:38.259Z,1.4
2018-11-27T02:20:38.244Z,1.4
2018-11-27T02:25:38.360Z,1.3
2018-11-27T02:30:38.395Z,1.3
2018-11-27T02:35:38.255Z,1.3
2018-11-27T02:40:38.467Z,1.3
2018-11-27T02:45:38.264Z,1.3
2018-11-27T02:50:38.427Z,1.4
2018-11-27T02:55:38.261Z,1.3
2018-11-27T03:00:38.270Z,1.4
2018-11-27T03:05:38.224Z,1.3
2018-11-27T03:10:38.273Z,1.3
2018-11-27T03:15:38.271Z,1.3
2018-11-27T03:20:38.270Z,1.3
2018-11-27T03:25:38.277Z,1.3
2018-11-27T03:30:38.295Z,1.3
2018-11-27T03:35:38.290Z,1.3
2018-11-27T03:40:38.283Z,1.3
2018-11-27T03:45:38.503Z,1.3
2018-11-27T03:50:38.288Z,1.4
2018-11-27T03:55:38.468Z,1.3
2018-11-27T04:00:38.299Z,1.4
2018-11-27T04:05:38.296Z,1.3
2018-11-27T04:10:38.322Z,1.3
2018-11-27T04:15:38.309Z,1.3
2018-11-27T04:20:38.308Z,1.3
2018-11-27T04:25:38.311Z,1.3
2018-11-27T04:30:38.299Z,1.3
2018-11-27T04:35:38.318Z,1.3
2018-11-27T04:40:38.462Z,1.3
2018-11-27T04:45:38.317Z,1.3
2018-11-27T04:50:38.542Z,1.3
2018-11-27T04:55:38.458Z,1.3
2018-11-27T05:00:38.329Z,1.3
2018-11-27T05:05:38.551Z,1.3
2018-11-27T05:10:38.332Z,1.3
2018-11-27T05:15:38.337Z,1.3
2018-11-27T05:20:38.423Z,1.3
2018-11-27T05:25:38.667Z,1.3
2018-11-27T05:30:38.377Z,1.3
2018-11-27T05:35:38.432Z,1.3
2018-11-27T05:40:38.460Z,1.3
2018-11-27T05:45:38.595Z,1.3
2018-11-27T05:50:38.406Z,1.4
2018-11-27T05:55:38.667Z,1.3
2018-11-27T06:00:38.395Z,1.3
2018-11-27T06:05:38.546Z,1.3
2018-11-27T06:10:38.443Z,1.3
2018-11-27T06:15:38.449Z,1.3
2018-11-27T06:20:38.454Z,1.3
2018-11-27T06:25:38.479Z,1.3
2018-11-27T06:30:38.443Z,1.3
2018-11-27T06:35:38.456Z,1.3
2018-11-27T06:40:38.447Z,1.3
2018-11-27T06:45:38.697Z,1.3
2018-11-27T06:50:38.480Z,1.3
2018-11-27T06:55:38.670Z,1.4
2018-11-27T07:00:38.480Z,1.4
2018-11-27T07:05:38.487Z,1.4
2018-11-27T07:10:38.476Z,1.4
2018-11-27T07:15:38.458Z,1.4
2018-11-27T07:20:38.624Z,1.4
2018-11-27T07:25:38.585Z,1.4
2018-11-27T07:30:38.479Z,1.4
2018-11-27T07:35:38.628Z,1.5
2018-11-27T07:40:38.657Z,1.5
2018-11-27T07:45:38.712Z,1.5
2018-11-27T07:50:38.615Z,1.5
2018-11-27T07:55:38.654Z,1.5
2018-11-27T08:00:38.496Z,1.5
2018-11-27T08:05:38.730Z,1.5
2018-11-27T08:10:38.514Z,1.6
2018-11-27T08:15:38.714Z,1.6
2018-11-27T08:20:38.511Z,1.6
2018-11-27T08:25:38.656Z,1.7
2018-11-27T08:30:38.511Z,1.7
2018-11-27T08:35:38.632Z,1.8
2018-11-27T08:40:38.509Z,1.8
2018-11-27T08:45:38.516Z,1.8
2018-11-27T08:50:38.734Z,1.9
2018-11-27T08:55:38.611Z,1.9
2018-11-27T09:00:38.693Z,1.9
2018-11-27T09:05:38.742Z,2
2018-11-27T09:10:38.558Z,2
2018-11-27T09:15:38.724Z,2
2018-11-27T09:20:38.719Z,2.1
2018-11-27T09:25:38.541Z,2.1
2018-11-27T09:30:38.538Z,2.2
2018-11-27T09:35:38.740Z,2.2
2018-11-27T09:40:38.668Z,2.3
2018-11-27T09:45:38.691Z,2.3
2018-11-27T09:50:38.562Z,2.4
2018-11-27T09:55:38.559Z,2.4
2018-11-27T10:00:38.562Z,2.5
2018-11-27T10:05:38.563Z,2.5
2018-11-27T10:10:38.563Z,2.6
2018-11-27T10:15:38.546Z,2.6
2018-11-27T10:20:38.578Z,2.6
2018-11-27T10:25:38.573Z,2.7
2018-11-27T10:30:38.811Z,2.7
2018-11-27T10:35:38.722Z,2.7
2018-11-27T10:40:38.760Z,2.7
2018-11-27T10:45:38.599Z,2.7
2018-11-27T10:50:38.720Z,2.7
2018-11-27T10:55:38.602Z,2.7
2018-11-27T11:00:40.339Z,2.7
2018-11-27T11:05:40.351Z,2.7
2018-11-27T11:10:41.083Z,2.7
2018-11-27T11:15:40.544Z,2.7
2018-11-27T11:20:40.459Z,2.7
2018-11-27T11:25:40.495Z,2.6
2018-11-27T11:30:40.360Z,2.7
2018-11-27T11:35:40.361Z,2.7
2018-11-27T11:40:40.359Z,2.8
2018-11-27T11:45:40.526Z,2.8
2018-11-27T11:50:40.562Z,2.8
2018-11-27T11:55:40.602Z,2.8
2018-11-27T12:00:40.384Z,2.7
2018-11-27T12:05:40.366Z,2.7
2018-11-27T12:10:40.364Z,2.6
2018-11-27T12:15:40.382Z,2.6
2018-11-27T12:20:40.356Z,2.6
2018-11-27T12:25:40.604Z,2.6
2018-11-27T12:30:40.391Z,2.6
2018-11-27T12:35:40.394Z,2.6
2018-11-27T12:40:40.382Z,2.6
2018-11-27T12:45:40.376Z,2.6
2018-11-27T12:50:40.404Z,2.6
2018-11-27T12:55:40.607Z,2.6
2018-11-27T13:00:40.419Z,2.6
2018-11-27T13:05:40.419Z,2.6
2018-11-27T13:10:40.360Z,2.6
2018-11-27T13:15:40.390Z,2.5
2018-11-27T13:20:40.443Z,2.5
2018-11-27T13:25:40.403Z,2.5
2018-11-27T13:30:40.524Z,2.5
2018-11-27T13:35:40.562Z,2.5
2018-11-27T13:40:40.435Z,2.4
2018-11-27T13:45:40.385Z,2.5
2018-11-27T13:50:40.421Z,2.4
2018-11-27T13:55:40.366Z,2.4
2018-11-27T14:00:40.416Z,2.4
2018-11-27T14:05:40.405Z,2.4
2018-11-27T14:10:40.463Z,2.3
2018-11-27T14:15:40.459Z,2.4
2018-11-27T14:20:40.412Z,2.4
2018-11-27T14:25:40.554Z,2.3
2018-11-27T14:30:40.472Z,2.3
2018-11-27T14:35:40.680Z,2.3
2018-11-27T14:40:40.451Z,2.3
2018-11-27T14:45:40.644Z,2.2
2018-11-27T14:50:40.439Z,2.2
2018-11-27T14:55:40.599Z,2.2
2018-11-27T15:00:40.439Z,2.2
2018-11-27T15:05:40.459Z,2.2
2018-11-27T15:10:40.708Z,2.2
2018-11-27T15:15:40.629Z,2.1
2018-11-27T15:20:40.588Z,2.1
2018-11-27T15:25:40.477Z,2.1
2018-11-27T15:30:40.468Z,2
2018-11-27T15:35:40.731Z,2
2018-11-27T15:40:40.433Z,2
2018-11-27T15:45:40.469Z,2
2018-11-27T15:50:40.671Z,2
2018-11-27T15:55:40.497Z,2
2018-11-27T16:00:40.490Z,2
2018-11-27T16:05:40.494Z,2
2018-11-27T16:10:40.482Z,1.9
2018-11-27T16:15:40.510Z,1.9
2018-11-27T16:20:40.483Z,1.9
2018-11-27T16:25:40.484Z,1.9
2018-11-27T16:30:40.494Z,1.9
2018-11-27T16:35:40.689Z,1.9
2018-11-27T16:40:40.517Z,1.9
2018-11-27T16:45:40.461Z,1.9
2018-11-27T16:50:40.524Z,1.9
2018-11-27T16:55:40.504Z,1.9
2018-11-27T17:00:40.683Z,1.9
2018-11-27T17:05:40.534Z,1.9
2018-11-27T17:10:40.484Z,1.9
2018-11-27T17:15:40.562Z,1.9
2018-11-27T17:20:40.510Z,1.9
2018-11-27T17:25:40.510Z,1.9
2018-11-27T17:30:40.509Z,1.9
2018-11-27T17:35:40.548Z,1.9
2018-11-27T17:40:40.523Z,1.8
2018-11-27T17:45:40.551Z,1.9
2018-11-27T17:50:40.553Z,1.8
2018-11-27T17:55:40.619Z,1.8
2018-11-27T18:00:40.576Z,1.8
2018-11-27T18:05:41.003Z,1.8
2018-11-27T18:10:41.012Z,1.8
2018-11-27T18:15:40.586Z,1.8
2018-11-27T18:20:40.663Z,1.8
2018-11-27T18:25:40.613Z,1.8
2018-11-27T18:30:40.617Z,1.8
2018-11-27T18:35:40.926Z,1.8
2018-11-27T18:40:40.644Z,1.7
2018-11-27T18:45:40.584Z,1.7
2018-11-27T18:50:40.571Z,1.7
2018-11-27T18:55:40.671Z,1.7
2018-11-27T19:00:40.604Z,1.6
2018-11-27T19:05:40.655Z,1.6
2018-11-27T19:10:40.578Z,1.6
2018-11-27T19:15:40.685Z,1.6
2018-11-27T19:20:40.966Z,1.6
2018-11-27T19:25:40.616Z,1.6
2018-11-27T19:30:40.600Z,1.6
2018-11-27T19:35:40.626Z,1.5
2018-11-27T19:40:40.642Z,1.5
2018-11-27T19:45:41.208Z,1.5
2018-11-27T19:50:41.162Z,1.5
2018-11-27T19:55:41.088Z,1.5
2018-11-27T20:00:41.142Z,1.5
2018-11-27T20:05:41.050Z,1.4
2018-11-27T20:10:40.887Z,1.4
2018-11-27T20:15:40.931Z,1.3
2018-11-27T20:20:40.559Z,1.3
2018-11-27T20:25:40.988Z,1.3
2018-11-27T20:30:40.612Z,1.3
2018-11-27T20:35:40.971Z,1.3
2018-11-27T20:40:40.951Z,1.3
2018-11-27T20:45:40.998Z,1.3
2018-11-27T20:50:41.054Z,1.3
2018-11-27T20:55:40.630Z,1.3
2018-11-27T21:00:40.736Z,1.3
2018-11-27T21:05:40.756Z,1.3
2018-11-27T21:10:40.724Z,1.2
2018-11-27T21:15:40.646Z,1.2
2018-11-27T21:20:41.502Z,1.2
2018-11-27T21:25:41.230Z,1.2
2018-11-27T21:30:40.609Z,1.1
2018-11-27T21:35:40.644Z,1.1
2018-11-27T21:40:40.648Z,1.1
2018-11-27T21:45:40.674Z,1.1
2018-11-27T21:50:40.685Z,1.1
2018-11-27T21:55:40.698Z,1
2018-11-27T22:00:40.713Z,1
2018-11-27T22:05:40.666Z,1
2018-11-27T22:10:40.675Z,0.9
2018-11-27T22:15:40.682Z,0.9
2018-11-27T22:20:40.658Z,0.9
2018-11-27T22:25:40.697Z,0.9
2018-11-27T22:30:40.698Z,0.9
2018-11-27T22:35:40.695Z,0.9
2018-11-27T22:40:40.930Z,0.9
2018-11-27T22:45:40.691Z,0.9
2018-11-27T22:50:40.700Z,0.8
2018-11-27T22:55:40.803Z,0.8
2018-11-27T23:00:40.833Z,0.8
2018-11-27T23:05:40.880Z,0.7
2018-11-27T23:10:40.703Z,0.7
2018-11-27T23:15:40.847Z,0.7
2018-11-27T23:20:40.849Z,0.7
2018-11-27T23:25:40.714Z,0.7
2018-11-27T23:30:40.845Z,0.7
2018-11-27T23:35:40.877Z,0.7
2018-11-27T23:40:40.735Z,0.6
2018-11-27T23:45:40.834Z,0.5
2018-11-27T23:50:40.893Z,0.5
2018-11-27T23:55:40.733Z,0.5
